Time;durP1;ratioP1;P1;durP2;ratioP2;P2;SDS_P1;SDS_P2;PMS_P1;PMS_P2;Temp;Humidity;BMP_temperature;BMP_pressure;BME280_temperature;BME280_humidity;BME280_pressure;Samples;Min_cycle;Max_cycle;Signal;HPM_P1;HPM_P2
2022/03/28 00:00:50;;;;;;;22.48;14.10;;;;;;;-148.33;100.00;56587.81;5048970;28;20116;-59
2022/03/28 00:03:15;;;;;;;22.17;15.55;;;;;;;-148.33;100.00;56587.81;5048641;28;20037;-58
2022/03/28 00:05:41;;;;;;;25.65;16.30;;;;;;;-148.33;100.00;56587.81;5048974;28;20028;-60
2022/03/28 00:08:06;;;;;;;24.88;14.20;;;;;;;-148.33;100.00;56587.81;5048449;28;20416;-59
2022/03/28 00:10:32;;;;;;;20.77;15.07;;;;;;;-148.33;100.00;56587.81;5048861;28;20517;-60
2022/03/28 00:12:57;;;;;;;19.98;13.65;;;;;;;-148.33;100.00;56587.81;5048369;28;20029;-60
2022/03/28 00:15:23;;;;;;;18.20;14.02;;;;;;;-148.33;100.00;56587.81;5048742;28;20033;-60
2022/03/28 00:17:48;;;;;;;20.83;14.03;;;;;;;-148.33;100.00;56587.81;5048193;28;20021;-59
2022/03/28 00:20:13;;;;;;;23.80;13.82;;;;;;;-148.33;100.00;56587.81;5064620;28;20036;-59
2022/03/28 00:22:40;;;;;;;25.00;14.10;;;;;;;-148.33;100.00;56587.81;5067840;28;20073;-59
2022/03/28 00:25:07;;;;;;;18.83;12.63;;;;;;;-148.33;100.00;56587.81;5066591;28;20043;-57
2022/03/28 00:27:32;;;;;;;18.80;12.85;;;;;;;-148.33;100.00;56587.81;5066747;28;20052;-58
2022/03/28 00:29:58;;;;;;;21.15;12.90;;;;;;;-148.33;100.00;56587.81;5063487;28;20421;-59
2022/03/28 00:32:23;;;;;;;22.20;13.73;;;;;;;-148.33;100.00;56587.81;5067915;28;20380;-58
2022/03/28 00:34:50;;;;;;;21.83;12.97;;;;;;;-148.33;100.00;56587.81;5051756;28;20025;-59
2022/03/28 00:37:15;;;;;;;18.92;13.00;;;;;;;-148.33;100.00;56587.81;5063575;28;20060;-59
2022/03/28 00:39:40;;;;;;;21.83;13.93;;;;;;;-148.33;100.00;56587.81;5062153;28;20078;-59
2022/03/28 00:42:06;;;;;;;20.23;12.73;;;;;;;-148.33;100.00;56587.81;5067278;28;20047;-58
2022/03/28 00:44:32;;;;;;;22.13;14.07;;;;;;;-148.33;100.00;56587.81;5068015;28;20394;-59
2022/03/28 00:46:58;;;;;;;18.30;13.03;;;;;;;-148.33;100.00;56587.81;5048083;28;20024;-59
2022/03/28 00:49:23;;;;;;;19.83;12.73;;;;;;;-148.33;100.00;56587.81;5071154;28;20529;-59
2022/03/28 00:51:49;;;;;;;22.40;12.82;;;;;;;-148.33;100.00;56587.81;5071644;28;20111;-59
2022/03/28 00:54:14;;;;;;;19.17;12.77;;;;;;;-148.33;100.00;56587.81;5071001;28;20064;-59
2022/03/28 00:56:41;;;;;;;24.20;13.20;;;;;;;-148.33;100.00;56587.81;5071054;28;20062;-59
2022/03/28 00:59:06;;;;;;;23.83;13.73;;;;;;;-148.33;100.00;56587.81;5071446;28;20068;-59
2022/03/28 01:01:32;;;;;;;21.57;12.90;;;;;;;-148.33;100.00;56587.81;5070623;28;20452;-59
2022/03/28 01:03:58;;;;;;;18.23;12.67;;;;;;;-148.33;100.00;56587.81;5071167;28;20028;-59
2022/03/28 01:06:23;;;;;;;19.23;12.90;;;;;;;-148.33;100.00;56587.81;5071056;28;20115;-58
2022/03/28 01:08:49;;;;;;;18.27;13.30;;;;;;;-148.33;100.00;56587.81;5067360;28;20032;-59
2022/03/28 01:11:15;;;;;;;22.63;12.95;;;;;;;-148.33;100.00;56587.81;5052049;28;20087;-60
2022/03/28 01:13:41;;;;;;;17.40;12.77;;;;;;;-148.33;100.00;56587.81;5051814;28;20068;-60
2022/03/28 01:16:08;;;;;;;18.77;12.53;;;;;;;-148.33;100.00;56587.81;5051977;28;20039;-60
2022/03/28 01:18:34;;;;;;;20.07;12.53;;;;;;;-148.33;100.00;56587.81;5050976;28;20033;-60
2022/03/28 01:21:01;;;;;;;19.83;12.67;;;;;;;-148.33;100.00;56587.81;5051392;28;20048;-60
2022/03/28 01:23:27;;;;;;;20.67;12.03;;;;;;;-148.33;100.00;56587.81;5051622;28;20039;-59
2022/03/28 01:25:53;;;;;;;21.43;12.40;;;;;;;-148.33;100.00;56587.81;5051719;28;20086;-60
2022/03/28 01:28:27;;;;;;;18.43;12.47;;;;;;;-148.33;100.00;56587.81;5051269;28;20398;-59
2022/03/28 01:30:54;;;;;;;17.77;12.50;;;;;;;-148.33;100.00;56587.81;5050926;28;20033;-59
2022/03/28 01:33:20;;;;;;;18.00;12.60;;;;;;;-148.33;100.00;56587.81;5051253;28;20095;-60
2022/03/28 01:35:45;;;;;;;21.53;12.47;;;;;;;-148.33;100.00;56587.81;5051273;28;20028;-60
2022/03/28 01:38:13;;;;;;;17.13;12.35;;;;;;;-148.33;100.00;56587.81;5051662;28;20794;-60
2022/03/28 01:40:42;;;;;;;24.67;12.25;;;;;;;-148.33;100.00;56587.81;5050780;28;20462;-60
2022/03/28 01:43:07;;;;;;;21.67;13.33;;;;;;;-148.33;100.00;56587.81;5050785;28;20056;-58
2022/03/28 01:45:33;;;;;;;17.63;12.47;;;;;;;-148.33;100.00;56587.81;5051131;28;20529;-60
2022/03/28 01:47:58;;;;;;;19.75;12.63;;;;;;;-148.33;100.00;56587.81;5051451;28;20071;-59
2022/03/28 01:50:25;;;;;;;19.40;12.60;;;;;;;-148.33;100.00;56587.81;5051253;28;20043;-59
2022/03/28 01:52:51;;;;;;;28.87;13.10;;;;;;;-148.33;100.00;56587.81;5052079;28;20025;-59
2022/03/28 01:55:17;;;;;;;16.70;11.67;;;;;;;-148.33;100.00;56587.81;5070195;28;20082;-59
2022/03/28 01:57:43;;;;;;;22.07;12.57;;;;;;;-148.33;100.00;56587.81;5070096;28;20040;-59
2022/03/28 02:00:15;;;;;;;22.70;12.97;;;;;;;-148.33;100.00;56587.81;5069606;28;20431;-58
2022/03/28 02:02:41;;;;;;;20.40;11.43;;;;;;;-148.33;100.00;56587.81;5069942;28;20082;-60
2022/03/28 02:05:11;;;;;;;21.23;12.83;;;;;;;-148.33;100.00;56587.81;5070261;28;20025;-59
2022/03/28 02:07:41;;;;;;;20.50;11.77;;;;;;;-148.33;100.00;56587.81;5069749;28;20473;-58
2022/03/28 02:10:10;;;;;;;21.27;12.27;;;;;;;-148.33;100.00;56587.81;5070152;28;20039;-59
2022/03/28 02:12:36;;;;;;;21.50;12.63;;;;;;;-148.33;100.00;56587.81;5069912;28;20043;-59
2022/03/28 02:15:07;;;;;;;21.57;12.80;;;;;;;-148.33;100.00;56587.81;5068969;28;20472;-58
2022/03/28 02:17:33;;;;;;;19.45;11.75;;;;;;;-148.33;100.00;56587.81;5068498;28;20070;-59
2022/03/28 02:19:59;;;;;;;18.27;11.87;;;;;;;-148.33;100.00;56587.81;5050249;28;20032;-59
2022/03/28 02:22:24;;;;;;;21.50;11.73;;;;;;;-148.33;100.00;56587.81;5069628;28;20423;-60
2022/03/28 02:24:50;;;;;;;18.93;12.50;;;;;;;-148.33;100.00;56587.81;5069255;28;20423;-57
2022/03/28 02:27:16;;;;;;;20.57;11.43;;;;;;;-148.33;100.00;56587.81;5068694;28;20016;-59
2022/03/28 02:29:41;;;;;;;21.10;12.60;;;;;;;-148.33;100.00;56587.81;5068596;28;20024;-59
2022/03/28 02:32:07;;;;;;;21.60;12.30;;;;;;;-148.33;100.00;56587.81;5068827;28;20025;-59
2022/03/28 02:34:33;;;;;;;20.27;12.77;;;;;;;-148.33;100.00;56587.81;5068658;28;20354;-59
2022/03/28 02:36:59;;;;;;;23.00;12.87;;;;;;;-148.33;100.00;56587.81;5069342;28;20446;-59
2022/03/28 02:39:25;;;;;;;27.33;12.93;;;;;;;-148.33;100.00;56587.81;5068960;28;20054;-59
2022/03/28 02:41:51;;;;;;;19.67;12.00;;;;;;;-148.33;100.00;56587.81;5068793;28;20028;-59
2022/03/28 02:44:17;;;;;;;23.63;12.73;;;;;;;-148.33;100.00;56587.81;5061711;28;20357;-58
2022/03/28 02:46:43;;;;;;;22.27;12.37;;;;;;;-148.33;100.00;56587.81;5068561;28;20081;-59
2022/03/28 02:49:09;;;;;;;23.63;12.60;;;;;;;-148.33;100.00;56587.81;5067748;28;20024;-59
2022/03/28 02:51:35;;;;;;;21.00;13.13;;;;;;;-148.33;100.00;56587.81;5068784;28;20023;-60
2022/03/28 02:54:00;;;;;;;24.00;12.90;;;;;;;-148.33;100.00;56587.81;5068614;28;20032;-54
2022/03/28 02:56:25;;;;;;;24.60;13.50;;;;;;;-148.33;100.00;56587.81;5068513;28;20377;-59
2022/03/28 02:58:51;;;;;;;20.97;13.07;;;;;;;-148.33;100.00;56587.81;5068234;28;20024;-58
2022/03/28 03:01:16;;;;;;;21.93;13.20;;;;;;;-148.33;100.00;56587.81;5068001;28;20045;-59
2022/03/28 03:03:41;;;;;;;20.80;13.50;;;;;;;-148.33;100.00;56587.81;5068732;28;20020;-59
2022/03/28 03:06:07;;;;;;;22.57;13.63;;;;;;;-148.33;100.00;56587.81;5068249;28;20063;-58
2022/03/28 03:08:33;;;;;;;22.40;14.13;;;;;;;-148.33;100.00;56587.81;5067777;28;20070;-58
2022/03/28 03:10:58;;;;;;;20.33;13.43;;;;;;;-148.33;100.00;56587.81;5068299;28;20016;-59
2022/03/28 03:13:23;;;;;;;26.63;13.03;;;;;;;-148.33;100.00;56587.81;5068253;28;20020;-57
2022/03/28 03:15:49;;;;;;;27.07;12.87;;;;;;;-148.33;100.00;56587.81;5068054;28;20023;-60
2022/03/28 03:18:14;;;;;;;23.77;12.83;;;;;;;-148.33;100.00;56587.81;5067154;28;20055;-60
2022/03/28 03:20:39;;;;;;;21.80;12.87;;;;;;;-148.33;100.00;56587.81;5068144;28;20020;-59
2022/03/28 03:23:05;;;;;;;21.13;14.17;;;;;;;-148.33;100.00;56587.81;5067679;28;20028;-60
2022/03/28 03:25:30;;;;;;;23.63;13.33;;;;;;;-148.33;100.00;56587.81;5067961;28;20070;-58
2022/03/28 03:27:56;;;;;;;21.73;12.37;;;;;;;-148.33;100.00;56587.81;5061201;28;20025;-59
2022/03/28 03:30:21;;;;;;;21.17;12.33;;;;;;;-148.33;100.00;56587.81;5067651;28;20077;-55
2022/03/28 03:32:47;;;;;;;19.47;11.87;;;;;;;-148.33;100.00;56587.81;5067508;28;20024;-59
2022/03/28 03:35:12;;;;;;;24.13;12.63;;;;;;;-148.33;100.00;56587.81;5067793;28;20074;-58
2022/03/28 03:37:39;;;;;;;23.50;12.03;;;;;;;-148.33;100.00;56587.81;5067334;28;20077;-59
2022/03/28 03:40:06;;;;;;;23.27;12.77;;;;;;;-148.33;100.00;56587.81;5066984;28;20052;-56
2022/03/28 03:42:31;;;;;;;24.60;12.70;;;;;;;-148.33;100.00;56587.81;5067333;28;20508;-60
2022/03/28 03:44:58;;;;;;;21.80;14.40;;;;;;;-148.33;100.00;56587.81;5067831;28;20060;-58
2022/03/28 03:47:23;;;;;;;18.57;12.17;;;;;;;-148.33;100.00;56587.81;5067623;28;20058;-60
2022/03/28 03:49:49;;;;;;;22.30;12.47;;;;;;;-148.33;100.00;56587.81;5067323;28;20032;-59
2022/03/28 03:52:14;;;;;;;24.93;12.43;;;;;;;-148.33;100.00;56587.81;5067448;28;20020;-59
2022/03/28 03:54:39;;;;;;;20.03;12.63;;;;;;;-148.33;100.00;56587.81;5067267;28;20487;-60
2022/03/28 03:57:04;;;;;;;19.37;12.00;;;;;;;-148.33;100.00;56587.81;5067146;28;20034;-60
2022/03/28 03:59:30;;;;;;;18.70;11.17;;;;;;;-148.33;100.00;56587.81;5067231;28;20024;-60
2022/03/28 04:01:55;;;;;;;23.43;12.73;;;;;;;-148.33;100.00;56587.81;5067260;28;20035;-60
2022/03/28 04:04:21;;;;;;;19.97;11.37;;;;;;;-148.33;100.00;56587.81;5067509;28;20056;-60
2022/03/28 04:06:46;;;;;;;18.53;11.13;;;;;;;-148.33;100.00;56587.81;5067295;28;20017;-60
2022/03/28 04:09:11;;;;;;;20.83;12.80;;;;;;;-148.33;100.00;56587.81;5066998;28;20028;-57
2022/03/28 04:11:36;;;;;;;23.20;12.77;;;;;;;-148.33;100.00;56587.81;5067888;28;20118;-59
2022/03/28 04:14:02;;;;;;;20.03;11.90;;;;;;;-148.33;100.00;56587.81;5067000;28;20028;-60
2022/03/28 04:16:28;;;;;;;20.60;11.37;;;;;;;-148.33;100.00;56587.81;5067216;28;20082;-58
2022/03/28 04:18:53;;;;;;;19.87;11.43;;;;;;;-148.33;100.00;56587.81;5067026;28;20021;-60
2022/03/28 04:21:18;;;;;;;17.70;11.80;;;;;;;-148.33;100.00;56587.81;5067396;28;20024;-58
2022/03/28 04:23:43;;;;;;;18.87;10.60;;;;;;;-148.33;100.00;56587.81;5067038;28;20107;-59
2022/03/28 04:26:09;;;;;;;20.33;12.27;;;;;;;-148.33;100.00;56587.81;5073773;28;20472;-60
2022/03/28 04:28:34;;;;;;;21.40;10.83;;;;;;;-148.33;100.00;56587.81;5073721;28;20021;-60
2022/03/28 04:30:59;;;;;;;25.33;11.47;;;;;;;-148.33;100.00;56587.81;5073438;28;20021;-59
2022/03/28 04:33:25;;;;;;;19.87;11.47;;;;;;;-148.33;100.00;56587.81;5069258;28;20192;-60
2022/03/28 04:35:50;;;;;;;21.50;11.97;;;;;;;-148.33;100.00;56587.81;5073913;28;20020;-60
2022/03/28 04:38:16;;;;;;;20.50;11.53;;;;;;;-148.33;100.00;56587.81;5073470;28;20480;-58
2022/03/28 04:40:41;;;;;;;19.73;11.17;;;;;;;-148.33;100.00;56587.81;5073581;28;20076;-60
2022/03/28 04:43:07;;;;;;;19.73;11.23;;;;;;;-148.33;100.00;56587.81;5073344;28;20031;-60
2022/03/28 04:45:33;;;;;;;23.70;11.50;;;;;;;-148.33;100.00;56587.81;5073120;28;20472;-59
2022/03/28 04:47:58;;;;;;;19.53;10.77;;;;;;;-148.33;100.00;56587.81;5070912;28;20098;-60
2022/03/28 04:50:24;;;;;;;19.17;10.57;;;;;;;-148.33;100.00;56587.81;5073906;28;20057;-59
2022/03/28 04:52:49;;;;;;;21.50;12.23;;;;;;;-148.33;100.00;56587.81;5073513;28;20572;-57
2022/03/28 04:55:15;;;;;;;20.23;12.17;;;;;;;-148.33;100.00;56587.81;5073206;28;20073;-59
2022/03/28 04:57:40;;;;;;;21.63;10.97;;;;;;;-148.33;100.00;56587.81;5073639;28;20028;-59
2022/03/28 05:00:09;;;;;;;18.50;10.70;;;;;;;-148.33;100.00;56587.81;5073003;28;20056;-59
2022/03/28 05:02:35;;;;;;;19.97;10.53;;;;;;;-148.33;100.00;56587.81;5073590;28;20036;-59
2022/03/28 05:05:02;;;;;;;16.70;10.50;;;;;;;-148.33;100.00;56587.81;5073187;28;20029;-60
2022/03/28 05:07:31;;;;;;;23.80;11.50;;;;;;;-148.33;100.00;56587.81;5073801;28;20481;-59
2022/03/28 05:09:58;;;;;;;21.73;10.23;;;;;;;-148.33;100.00;56587.81;5072782;28;20028;-59
2022/03/28 05:12:24;;;;;;;19.63;10.60;;;;;;;-148.33;100.00;56587.81;5071761;28;20039;-59
2022/03/28 05:14:51;;;;;;;16.63;9.73;;;;;;;-148.33;100.00;56587.81;5071386;28;20473;-60
2022/03/28 05:17:22;;;;;;;18.53;9.87;;;;;;;-148.33;100.00;56587.81;5070792;28;20822;-58
2022/03/28 05:19:52;;;;;;;21.67;10.80;;;;;;;-148.33;100.00;56587.81;5071445;28;20031;-60
2022/03/28 05:22:18;;;;;;;18.33;10.23;;;;;;;-148.33;100.00;56587.81;5071355;28;20021;-59
2022/03/28 05:24:44;;;;;;;22.03;10.40;;;;;;;-148.33;100.00;56587.81;5073418;28;20051;-58
2022/03/28 05:27:09;;;;;;;20.83;10.57;;;;;;;-148.33;100.00;56587.81;5073015;28;20461;-59
2022/03/28 05:29:35;;;;;;;22.57;10.10;;;;;;;-148.33;100.00;56587.81;5072234;28;20056;-58
2022/03/28 05:32:01;;;;;;;19.80;10.70;;;;;;;-148.33;100.00;56587.81;5065671;28;20029;-59
2022/03/28 05:34:28;;;;;;;23.67;10.83;;;;;;;-148.33;100.00;56587.81;5053530;28;20033;-58
2022/03/28 05:36:54;;;;;;;22.23;11.40;;;;;;;-148.33;100.00;56587.81;5052734;28;20021;-59
2022/03/28 05:39:19;;;;;;;22.03;12.17;;;;;;;-148.33;100.00;56587.81;5055367;28;20035;-59
2022/03/28 05:41:45;;;;;;;22.40;10.30;;;;;;;-148.33;100.00;56587.81;5053111;28;20047;-59
2022/03/28 05:44:10;;;;;;;18.03;9.93;;;;;;;-148.33;100.00;56587.81;5051535;28;20383;-57
2022/03/28 05:46:35;;;;;;;18.33;10.87;;;;;;;-148.33;100.00;56587.81;5057755;28;20518;-60
2022/03/28 05:49:01;;;;;;;18.97;9.97;;;;;;;-148.33;100.00;56587.81;5069714;28;20033;-59
2022/03/28 05:51:26;;;;;;;17.73;10.47;;;;;;;-148.33;100.00;56587.81;5069614;28;20035;-59
2022/03/28 05:53:51;;;;;;;20.67;11.40;;;;;;;-148.33;100.00;56587.81;5069346;28;20071;-60
2022/03/28 05:56:17;;;;;;;21.97;10.67;;;;;;;-148.33;100.00;56587.81;5069020;28;20056;-58
2022/03/28 05:58:42;;;;;;;26.13;10.47;;;;;;;-148.33;100.00;56587.81;5069304;28;20028;-61
2022/03/28 06:01:08;;;;;;;19.63;9.27;;;;;;;-148.33;100.00;56587.81;5069224;28;20095;-60
2022/03/28 06:03:34;;;;;;;25.63;11.03;;;;;;;-148.33;100.00;56587.81;5061916;28;20052;-60
2022/03/28 06:05:59;;;;;;;21.17;10.87;;;;;;;-148.33;100.00;56587.81;5053700;28;20120;-59
2022/03/28 06:08:25;;;;;;;22.80;10.80;;;;;;;-148.33;100.00;56587.81;5051914;28;20025;-59
2022/03/28 06:10:50;;;;;;;20.77;10.37;;;;;;;-148.33;100.00;56587.81;5051837;28;20033;-60
2022/03/28 06:13:17;;;;;;;21.07;11.20;;;;;;;-148.33;100.00;56587.81;5053572;28;20116;-60
2022/03/28 06:15:43;;;;;;;24.53;10.80;;;;;;;-148.33;100.00;56587.81;5053749;28;20071;-60
2022/03/28 06:18:09;;;;;;;20.07;10.57;;;;;;;-148.33;100.00;56587.81;5051471;28;20021;-60
2022/03/28 06:20:34;;;;;;;17.33;10.37;;;;;;;-148.33;100.00;56587.81;5056973;28;20476;-60
2022/03/28 06:23:02;;;;;;;22.50;11.47;;;;;;;-148.33;100.00;56587.81;5067656;28;20191;-60
2022/03/28 06:25:28;;;;;;;22.67;10.50;;;;;;;-148.33;100.00;56587.81;5049565;28;20245;-60
2022/03/28 06:27:53;;;;;;;21.97;10.97;;;;;;;-148.33;100.00;56587.81;5052674;28;20372;-60
2022/03/28 06:30:18;;;;;;;23.57;10.87;;;;;;;-148.33;100.00;56587.81;5048617;28;20554;-58
2022/03/28 06:32:44;;;;;;;25.83;10.70;;;;;;;-148.33;100.00;56587.81;5062376;28;20107;-60
2022/03/28 06:35:09;;;;;;;20.17;9.97;;;;;;;-148.33;100.00;56587.81;5048867;28;20124;-61
2022/03/28 06:37:35;;;;;;;28.83;10.00;;;;;;;-148.33;100.00;56587.81;5049286;28;20153;-60
2022/03/28 06:40:03;;;;;;;22.47;10.33;;;;;;;-148.33;100.00;56587.81;5050685;28;20033;-59
2022/03/28 06:42:32;;;;;;;22.43;9.80;;;;;;;-148.33;100.00;56587.81;5049019;28;20028;-60
2022/03/28 06:45:01;;;;;;;20.23;10.67;;;;;;;-148.33;100.00;56587.81;5048172;28;20021;-61
2022/03/28 06:47:27;;;;;;;21.57;10.10;;;;;;;-148.33;100.00;56587.81;5056661;28;20036;-59
2022/03/28 06:49:52;;;;;;;24.43;10.43;;;;;;;-148.33;100.00;56587.81;5055922;28;20025;-61
2022/03/28 06:52:17;;;;;;;23.73;9.80;;;;;;;-148.33;100.00;56587.81;5068296;28;20039;-60
2022/03/28 06:54:43;;;;;;;24.17;10.02;;;;;;;-148.33;100.00;56587.81;5068417;28;20441;-59
2022/03/28 06:57:08;;;;;;;26.48;10.18;;;;;;;-148.33;100.00;56587.81;5068333;28;20405;-57
2022/03/28 06:59:33;;;;;;;27.88;9.65;;;;;;;-148.33;100.00;56587.81;5068332;28;20038;-59
2022/03/28 07:01:59;;;;;;;25.50;9.23;;;;;;;-148.33;100.00;56587.81;5055413;28;20470;-59
2022/03/28 07:04:25;;;;;;;21.23;10.57;;;;;;;-148.33;100.00;56587.81;5049095;28;20409;-58
2022/03/28 07:06:50;;;;;;;22.65;9.18;;;;;;;-148.33;100.00;56587.81;5049528;28;20389;-59
2022/03/28 07:09:16;;;;;;;20.77;9.95;;;;;;;-148.33;100.00;56587.81;5048488;28;20028;-60
2022/03/28 07:11:41;;;;;;;32.85;10.88;;;;;;;-148.33;100.00;56587.81;5049142;28;20108;-60
2022/03/28 07:14:07;;;;;;;20.27;10.40;;;;;;;-148.33;100.00;56587.81;5050850;28;20036;-58
2022/03/28 07:16:33;;;;;;;19.17;9.20;;;;;;;-148.33;100.00;56587.81;5055934;28;20107;-60
2022/03/28 07:18:58;;;;;;;24.08;10.02;;;;;;;-148.33;100.00;56587.81;5048884;28;20389;-58
2022/03/28 07:21:25;;;;;;;18.48;9.55;;;;;;;-148.33;100.00;56587.81;5047979;28;20029;-59
2022/03/28 07:23:51;;;;;;;22.77;10.55;;;;;;;-148.33;100.00;56587.81;5048567;28;20028;-59
2022/03/28 07:26:16;;;;;;;23.10;11.10;;;;;;;-148.33;100.00;56587.81;5048689;28;20075;-61
2022/03/28 07:28:41;;;;;;;21.30;9.95;;;;;;;-148.33;100.00;56587.81;5048681;28;20021;-58
2022/03/28 07:31:08;;;;;;;25.98;11.55;;;;;;;-148.33;100.00;56587.81;5048118;28;20024;-59
2022/03/28 07:33:36;;;;;;;19.33;10.77;;;;;;;-148.33;100.00;56587.81;5062274;28;20190;-60
2022/03/28 07:36:03;;;;;;;27.20;11.65;;;;;;;-148.33;100.00;56587.81;5067359;28;20027;-61
2022/03/28 07:38:28;;;;;;;23.50;12.15;;;;;;;-148.33;100.00;56587.81;5067013;28;20055;-60
2022/03/28 07:40:53;;;;;;;21.45;11.23;;;;;;;-148.33;100.00;56587.81;5067556;28;20024;-60
2022/03/28 07:43:19;;;;;;;20.65;11.85;;;;;;;-148.33;100.00;56587.81;5067255;28;20024;-58
2022/03/28 07:45:44;;;;;;;25.30;12.30;;;;;;;-148.33;100.00;56587.81;5048510;28;20043;-59
2022/03/28 07:48:09;;;;;;;28.58;13.02;;;;;;;-148.33;100.00;56587.81;5047945;28;20024;-60
2022/03/28 07:50:35;;;;;;;20.63;12.48;;;;;;;-148.33;100.00;56587.81;5048450;28;20020;-61
2022/03/28 07:53:00;;;;;;;25.55;12.23;;;;;;;-148.33;100.00;56587.81;5048136;28;20024;-60
2022/03/28 07:55:27;;;;;;;23.45;12.98;;;;;;;-148.33;100.00;56587.81;5048309;28;20035;-58
2022/03/28 07:57:53;;;;;;;26.58;13.50;;;;;;;-148.33;100.00;56587.81;5046894;28;20029;-60
2022/03/28 08:00:19;;;;;;;22.70;12.20;;;;;;;-148.33;100.00;56587.81;5047849;28;20043;-60
2022/03/28 08:02:44;;;;;;;25.85;13.30;;;;;;;-148.33;100.00;56587.81;5047619;28;20032;-60
2022/03/28 08:05:11;;;;;;;24.60;13.77;;;;;;;-148.33;100.00;56587.81;5048225;28;20025;-61
2022/03/28 08:07:37;;;;;;;24.85;14.52;;;;;;;-148.33;100.00;56587.81;5047767;28;20021;-60
2022/03/28 08:10:05;;;;;;;24.55;13.38;;;;;;;-148.33;100.00;56587.81;5047557;28;20087;-61
2022/03/28 08:12:31;;;;;;;26.20;14.10;;;;;;;-148.33;100.00;56587.81;5048833;28;20132;-61
2022/03/28 08:14:57;;;;;;;27.08;14.80;;;;;;;-148.33;100.00;56587.81;5047827;28;20049;-61
2022/03/28 08:17:23;;;;;;;24.08;14.60;;;;;;;-148.33;100.00;56587.81;5048198;28;20040;-61
2022/03/28 08:19:49;;;;;;;25.20;14.85;;;;;;;-148.33;100.00;56587.81;5047221;28;20208;-61
2022/03/28 08:22:14;;;;;;;22.15;14.05;;;;;;;-148.33;100.00;56587.81;5047681;28;20032;-61
2022/03/28 08:24:40;;;;;;;23.00;15.65;;;;;;;-148.33;100.00;56587.81;5047894;28;20469;-61
2022/03/28 08:27:06;;;;;;;26.02;15.00;;;;;;;-148.33;100.00;56587.81;5047440;28;20029;-59
2022/03/28 08:29:32;;;;;;;25.00;16.73;;;;;;;-148.33;100.00;56587.81;5048733;28;20446;-60
2022/03/28 08:32:02;;;;;;;28.38;16.73;;;;;;;-148.33;100.00;56587.81;5053813;28;20132;-61
2022/03/28 08:34:28;;;;;;;28.60;17.70;;;;;;;-148.33;100.00;56587.81;5047981;28;20103;-61
2022/03/28 08:36:54;;;;;;;26.27;17.55;;;;;;;-148.33;100.00;56587.81;5046558;28;20025;-60
2022/03/28 08:39:19;;;;;;;22.05;15.98;;;;;;;-148.33;100.00;56587.81;5047351;28;20033;-59
2022/03/28 08:41:47;;;;;;;25.60;16.58;;;;;;;-148.33;100.00;56587.81;5047253;28;20144;-61
2022/03/28 08:44:12;;;;;;;28.48;18.83;;;;;;;-148.33;100.00;56587.81;5047499;28;20484;-61
2022/03/28 08:46:41;;;;;;;25.10;17.30;;;;;;;-148.33;100.00;56587.81;5046942;28;20055;-61
2022/03/28 08:49:08;;;;;;;27.25;17.20;;;;;;;-148.33;100.00;56587.81;5060752;28;20415;-60
2022/03/28 08:51:33;;;;;;;27.58;16.98;;;;;;;-148.33;100.00;56587.81;5055593;28;20029;-61
2022/03/28 08:53:59;;;;;;;27.48;17.73;;;;;;;-148.33;100.00;56587.81;5047158;28;20021;-59
2022/03/28 08:56:24;;;;;;;30.15;17.42;;;;;;;-148.33;100.00;56587.81;5047062;28;20366;-60
2022/03/28 08:58:49;;;;;;;26.83;17.08;;;;;;;-148.33;100.00;56587.81;5047304;28;20017;-60
2022/03/28 09:01:15;;;;;;;24.88;17.45;;;;;;;-148.33;100.00;56587.81;5047511;28;20410;-60
2022/03/28 09:03:49;;;;;;;23.58;17.42;;;;;;;-148.33;100.00;56587.81;5047602;28;20025;-61
2022/03/28 09:06:37;;;;;;;25.02;17.33;;;;;;;-148.33;100.00;56587.81;5046543;28;20424;-61
2022/03/28 09:09:19;;;;;;;25.15;17.85;;;;;;;-148.33;100.00;56587.81;5063851;28;20028;-60
2022/03/28 09:11:53;;;;;;;24.45;17.25;;;;;;;-148.33;100.00;56587.81;5070539;28;20052;-61
2022/03/28 09:14:27;;;;;;;27.15;18.38;;;;;;;-148.33;100.00;56587.81;5052708;28;20388;-60
2022/03/28 09:17:09;;;;;;;27.30;17.85;;;;;;;-148.33;100.00;56587.81;5069827;28;20584;-61
2022/03/28 09:19:49;;;;;;;28.08;18.65;;;;;;;-148.33;100.00;56587.81;5054962;28;20070;-60
2022/03/28 09:22:19;;;;;;;28.10;19.60;;;;;;;-148.33;100.00;56587.81;5050996;28;20033;-61
2022/03/28 09:24:45;;;;;;;30.35;20.35;;;;;;;-148.33;100.00;56587.81;5050772;28;20039;-60
2022/03/28 09:27:19;;;;;;;27.52;20.35;;;;;;;-148.33;100.00;56587.81;5050476;28;20025;-60
2022/03/28 09:30:10;;;;;;;30.65;20.77;;;;;;;-148.33;100.00;56587.81;5050932;28;20404;-61
2022/03/28 09:32:36;;;;;;;;;;;;;;;-148.33;100.00;56587.81;5070409;28;20031;-60
2022/03/28 09:35:12;;;;;;;29.63;21.30;;;;;;;-148.33;100.00;56587.81;5069653;28;19912;-61
2022/03/28 09:37:50;;;;;;;32.00;21.13;;;;;;;-148.33;100.00;56587.81;5062278;28;20032;-61
2022/03/28 09:40:29;;;;;;;30.13;20.58;;;;;;;-148.33;100.00;56587.81;5067105;28;20028;-58
2022/03/28 09:42:55;;;;;;;34.10;22.02;;;;;;;-148.33;100.00;56587.81;5050362;28;20048;-61
2022/03/28 09:45:23;;;;;;;31.00;22.85;;;;;;;-148.33;100.00;56587.81;5050249;28;20133;-61
2022/03/28 09:47:59;;;;;;;31.15;21.40;;;;;;;-148.33;100.00;56587.81;5050893;28;20469;-59
2022/03/28 09:50:34;;;;;;;32.38;21.83;;;;;;;-148.33;100.00;56587.81;5050393;28;20108;-60
2022/03/28 09:53:09;;;;;;;30.13;21.75;;;;;;;-148.33;100.00;56587.81;5049844;28;20016;-61
2022/03/28 09:55:50;;;;;;;30.50;22.88;;;;;;;-148.33;100.00;56587.81;5050472;28;20033;-59
2022/03/28 09:58:37;;;;;;;32.13;22.10;;;;;;;-148.33;100.00;56587.81;5064316;28;20484;-59
2022/03/28 10:01:11;;;;;;;28.33;22.50;;;;;;;-148.33;100.00;56587.81;5062664;28;20068;-61
2022/03/28 10:03:37;;;;;;;29.05;21.63;;;;;;;-148.33;100.00;56587.81;5068544;28;20037;-60
2022/03/28 10:06:05;;;;;;;30.30;22.15;;;;;;;-148.33;100.00;56587.81;5069833;28;20036;-61
2022/03/28 10:08:32;;;;;;;30.40;22.27;;;;;;;-148.33;100.00;56587.81;5069237;28;20020;-61
2022/03/28 10:10:58;;;;;;;29.83;22.63;;;;;;;-148.33;100.00;56587.81;5068940;28;20438;-59
2022/03/28 10:13:25;;;;;;;28.20;20.73;;;;;;;-148.33;100.00;56587.81;5069216;28;20033;-61
2022/03/28 10:15:51;;;;;;;34.78;21.80;;;;;;;-148.33;100.00;56587.81;5068635;28;20029;-61
2022/03/28 10:18:16;;;;;;;34.08;23.55;;;;;;;-148.33;100.00;56587.81;5068818;28;20510;-60
2022/03/28 10:20:45;;;;;;;30.40;22.80;;;;;;;-148.33;100.00;56587.81;5068098;28;20031;-61
2022/03/28 10:23:16;;;;;;;30.02;22.52;;;;;;;-148.33;100.00;56587.81;5068931;28;20028;-59
2022/03/28 10:25:42;;;;;;;34.45;24.73;;;;;;;-148.33;100.00;56587.81;5069593;28;20123;-60
2022/03/28 10:28:08;;;;;;;35.47;23.98;;;;;;;-148.33;100.00;56587.81;5069117;28;20020;-62
2022/03/28 10:30:34;;;;;;;35.60;23.50;;;;;;;-148.33;100.00;56587.81;5064735;28;20201;-59
2022/03/28 10:33:16;;;;;;;35.45;23.42;;;;;;;-148.33;100.00;56587.81;5050827;28;20131;-61
2022/03/28 10:36:01;;;;;;;37.92;23.92;;;;;;;-148.33;100.00;56587.81;5050199;28;20035;-61
2022/03/28 10:38:27;;;;;;;28.48;21.77;;;;;;;-148.33;100.00;56587.81;5049649;28;20094;-61
2022/03/28 10:41:08;;;;;;;32.50;22.77;;;;;;;-148.33;100.00;56587.81;5049105;28;20032;-61
2022/03/28 10:43:34;;;;;;;;;;;;;;;-148.33;100.00;56587.81;5050673;28;20078;-60
2022/03/28 10:46:06;;;;;;;32.97;23.17;;;;;;;-148.33;100.00;56587.81;5051999;28;20384;-61
2022/03/28 10:48:54;;;;;;;31.10;22.98;;;;;;;-148.33;100.00;56587.81;5051285;28;20036;-60
2022/03/28 10:51:23;;;;;;;29.35;21.77;;;;;;;-148.33;100.00;56587.81;5053544;28;20063;-61
2022/03/28 10:53:54;;;;;;;31.02;23.52;;;;;;;-148.33;100.00;56587.81;5050807;28;20040;-61